Huvudsida
METAR-TAF:

METAR-TAF

Flygplatser :

Gibraltar International Airport

Gibraltar, Gibraltar

latitud: 36-09N, longitud: 005-21W, höjd: 5 m

METAR: saknas

Tid: 23:35 (21:35 UTC)

Väderprognos

Denna rapport gjordes för 4 timmar och 36 minuter sedan, klockan 16:59 UTC
Prognos gäller från 19 kl. 18 UTC till 19 kl. 22 UTC
Vind 13 kt från ost/nordost
Sikt 10 km eller mer
Få moln på en höjd av 1200 ft
Temporärt
från 19 kl. 18 UTC till 19 kl. 22 UTC
Vind 15 kt från ost i byarna ända upp till 25 kt
Spridda moln på en höjd av 1600 ft
Sannolikhet 30% :
Temporärt
från 19 kl. 18 UTC till 19 kl. 22 UTC
Sikt: 7000 m
Spridda moln på en höjd av 1200 ft
torrdis

TAF: LXGB 191659Z 1918/1922 07013KT 9999 FEW012 TEMPO 1918/1922 09015G25KT SCT016 PROB30 TEMPO 1918/1922 7000 HZ SCT012

Aktuella väderrapporter och prognoser från 4000 flygplatser (METAR- och TAF-rapporter).

De tillgängliga stationerna syns som gula och röda prickar på kartan.

För musen över prickarna för att se namnen på stationerna.

Klicka sedan för att få väderrapporter och prognoser.

För att ändra kartan: Klicka på de gröna knapparna med ett svart kors på för att zooma in; den gröna knappen med ett streck på för att zooma ut; eller på de gröna pilarna för angränsande kartor.


METAR-TAF: